Terminal Aerodrome Forecast
Issued by NWS Chicago, IL

Home | Current Version | Previous Version | Graphics & Text | Print | Product List | Glossary On
Versions: 1 2 3 4 5 6 7 8 9 10 11 12 13 14 15 16 17 18 19 20 21 22 23 24 25 26 27 28
601
FTUS43 KLOT 141505 AAA
TAFRFD
TAF AMD
KRFD 141505Z 1415/1512 09008KT 5SM BR VCSH BKN007 OVC015
     FM141600 10008KT 5SM -SHRA BR VCTS OVC009CB
      TEMPO 1416/1418 2SM TSRA SCT006 OVC020CB
     FM141800 12008KT 6SM BR VCSH SCT009 BKN018
     FM142200 17011KT 3SM SHRA VCTS SCT009 BKN025 BKN060CB
     FM150500 23011KT 6SM -SHRA BR OVC009
     FM150900 27017G25KT P6SM BKN015=

USA.gov is the U.S. government's official web portal to all federal, state and local government web resources and services.